createdAt,value
2023-01-22T00:02:42.475Z,18.88
2023-01-22T00:05:32.481Z,17.95
2023-01-22T00:08:22.482Z,17.70
2023-01-22T00:11:12.457Z,18.00
2023-01-22T00:14:02.524Z,18.60
2023-01-22T00:16:53.070Z,19.27
2023-01-22T00:19:43.525Z,18.80
2023-01-22T00:22:33.741Z,18.42
2023-01-22T00:25:24.036Z,17.10
2023-01-22T00:28:14.250Z,17.10
2023-01-22T00:31:06.103Z,16.48
2023-01-22T00:33:56.527Z,17.70
2023-01-22T00:36:46.801Z,16.60
2023-01-22T00:39:39.176Z,17.13
2023-01-22T00:42:28.993Z,15.93
2023-01-22T00:45:19.487Z,16.88
2023-01-22T00:48:09.442Z,16.08
2023-01-22T00:50:59.562Z,16.30
2023-01-22T00:53:49.735Z,16.42
2023-01-22T00:56:39.576Z,17.27
2023-01-22T00:59:29.517Z,16.48
2023-01-22T01:02:19.430Z,16.35
2023-01-22T01:05:09.343Z,16.27
2023-01-22T01:07:59.503Z,15.77
2023-01-22T01:10:57.162Z,16.45
2023-01-22T01:13:48.280Z,17.30
2023-01-22T01:16:38.383Z,15.93
2023-01-22T01:19:28.147Z,16.00
2023-01-22T01:22:18.260Z,15.80
2023-01-22T01:25:08.408Z,17.08
2023-01-22T01:27:59.723Z,16.60
2023-01-22T01:30:50.637Z,15.27
2023-01-22T01:33:41.364Z,17.08
2023-01-22T01:36:47.683Z,16.67
2023-01-22T01:39:38.830Z,16.52
2023-01-22T01:42:35.569Z,16.73
2023-01-22T01:45:34.136Z,15.40
2023-01-22T01:48:30.459Z,16.05
2023-01-22T01:51:29.630Z,15.35
2023-01-22T01:54:19.848Z,15.88
2023-01-22T01:57:14.675Z,15.85
2023-01-22T02:00:10.725Z,15.70
2023-01-22T02:03:04.293Z,15.82
2023-01-22T02:05:54.725Z,14.30
2023-01-22T02:08:48.289Z,14.68
2023-01-22T02:11:40.292Z,14.98
2023-01-22T02:14:33.727Z,15.30
2023-01-22T02:17:23.824Z,11.27
2023-01-22T02:20:14.922Z,14.98
2023-01-22T02:23:05.533Z,15.18
2023-01-22T02:25:57.612Z,14.93
2023-01-22T02:28:48.004Z,14.43
2023-01-22T02:31:39.373Z,15.23
2023-01-22T02:34:29.661Z,16.40
2023-01-22T02:37:19.726Z,15.05
2023-01-22T02:40:12.112Z,14.95
2023-01-22T02:43:03.037Z,16.17
2023-01-22T02:45:54.109Z,16.13
2023-01-22T02:48:44.232Z,16.08
2023-01-22T02:51:34.859Z,14.77
2023-01-22T02:54:25.454Z,15.23
2023-01-22T02:57:15.564Z,14.35
2023-01-22T03:00:06.738Z,16.73
2023-01-22T03:02:56.871Z,15.35
2023-01-22T03:05:51.336Z,15.68
2023-01-22T03:08:43.522Z,16.17
2023-01-22T03:11:35.671Z,17.35
2023-01-22T03:14:47.172Z,16.80
2023-01-22T03:17:56.923Z,17.85
2023-01-22T03:21:05.631Z,16.90
2023-01-22T03:23:55.864Z,17.05
2023-01-22T03:26:45.970Z,16.88
2023-01-22T03:29:39.402Z,17.90
2023-01-22T03:32:31.738Z,17.67
2023-01-22T03:35:22.767Z,20.13
2023-01-22T03:38:30.056Z,17.85
2023-01-22T03:41:20.712Z,18.02
2023-01-22T03:44:14.204Z,23.23
2023-01-22T03:47:05.367Z,26.80
2023-01-22T03:49:56.216Z,26.00
2023-01-22T03:52:46.703Z,22.35
2023-01-22T03:55:37.166Z,19.67
2023-01-22T03:58:29.957Z,20.33
2023-01-22T04:01:28.463Z,25.13
2023-01-22T04:04:20.571Z,22.38
2023-01-22T04:07:10.796Z,20.38
2023-01-22T04:10:01.403Z,21.73
2023-01-22T04:12:54.224Z,22.48
2023-01-22T04:15:46.386Z,21.48
2023-01-22T04:18:59.303Z,19.00
2023-01-22T04:22:08.028Z,16.90
2023-01-22T04:24:58.533Z,16.58
2023-01-22T04:27:48.688Z,15.32
2023-01-22T04:30:43.449Z,16.10
2023-01-22T04:33:54.107Z,15.60
2023-01-22T04:36:49.557Z,15.25
2023-01-22T04:39:40.379Z,15.48
2023-01-22T04:42:30.138Z,16.17
2023-01-22T04:45:20.167Z,16.35
2023-01-22T04:48:11.329Z,16.52
2023-01-22T04:51:03.511Z,15.98
2023-01-22T04:53:55.807Z,15.30
2023-01-22T04:56:46.207Z,16.00
2023-01-22T04:59:37.419Z,16.10
2023-01-22T05:02:27.655Z,15.05
2023-01-22T05:05:17.931Z,16.70
2023-01-22T05:08:07.863Z,14.30
2023-01-22T05:11:03.791Z,15.98
2023-01-22T05:14:06.168Z,15.88
2023-01-22T05:16:56.170Z,15.65
2023-01-22T05:19:46.772Z,17.02
2023-01-22T05:22:42.430Z,17.55
2023-01-22T05:25:33.320Z,17.13
2023-01-22T05:28:24.694Z,16.55
2023-01-22T05:31:31.042Z,17.25
2023-01-22T05:34:25.970Z,15.93
2023-01-22T05:37:16.465Z,16.50
2023-01-22T05:40:07.712Z,16.45
2023-01-22T05:42:59.029Z,16.58
2023-01-22T05:45:50.859Z,15.85
2023-01-22T05:49:01.360Z,19.40
2023-01-22T05:51:54.564Z,18.30
2023-01-22T05:54:44.894Z,17.30
2023-01-22T05:57:35.658Z,16.42
2023-01-22T06:00:26.598Z,16.23
2023-01-22T06:03:21.690Z,16.98
2023-01-22T06:06:15.337Z,17.20
2023-01-22T06:09:06.749Z,20.08
2023-01-22T06:12:00.189Z,19.13
2023-01-22T06:14:51.044Z,19.58
2023-01-22T06:17:41.109Z,18.33
2023-01-22T06:20:31.301Z,18.65
2023-01-22T06:23:22.752Z,17.90
2023-01-22T06:26:14.257Z,16.73
2023-01-22T06:29:06.443Z,19.20
2023-01-22T06:31:57.404Z,18.80
2023-01-22T06:34:47.798Z,18.92
2023-01-22T06:37:38.206Z,19.20
2023-01-22T06:40:29.040Z,18.63
2023-01-22T06:43:19.772Z,18.35
2023-01-22T06:46:12.894Z,17.60
2023-01-22T06:49:22.522Z,17.98
2023-01-22T06:52:12.401Z,17.83
2023-01-22T06:55:02.496Z,18.13
2023-01-22T06:57:56.616Z,18.45
2023-01-22T07:00:46.727Z,18.77
2023-01-22T07:03:36.801Z,18.65
2023-01-22T07:06:26.836Z,18.70
2023-01-22T07:09:16.699Z,19.35
2023-01-22T07:12:07.112Z,19.52
2023-01-22T07:14:57.190Z,18.83
2023-01-22T07:17:52.126Z,19.58
2023-01-22T07:20:43.065Z,20.02
2023-01-22T07:23:33.556Z,20.10
2023-01-22T07:26:23.830Z,19.27
2023-01-22T07:29:14.127Z,20.70
2023-01-22T07:32:04.889Z,18.00
2023-01-22T07:34:55.368Z,19.42
2023-01-22T07:37:56.919Z,20.08
2023-01-22T07:40:46.902Z,19.08
2023-01-22T07:43:36.875Z,21.17
2023-01-22T07:46:28.044Z,19.90
2023-01-22T07:49:18.231Z,20.55
2023-01-22T07:52:08.181Z,20.50
2023-01-22T07:54:58.455Z,21.40
2023-01-22T07:57:48.596Z,23.67
2023-01-22T08:00:39.123Z,22.38
2023-01-22T08:03:33.822Z,22.50
2023-01-22T08:06:23.832Z,26.27
2023-01-22T08:09:16.036Z,22.15
2023-01-22T08:12:07.175Z,22.33
2023-01-22T08:14:57.647Z,22.67
2023-01-22T08:17:50.335Z,22.25
2023-01-22T08:20:40.425Z,22.35
2023-01-22T08:23:30.385Z,22.30
2023-01-22T08:26:20.733Z,21.40
2023-01-22T08:29:10.852Z,22.13
2023-01-22T08:32:01.341Z,22.75
2023-01-22T08:34:54.296Z,21.38
2023-01-22T08:37:44.583Z,20.25
2023-01-22T08:40:36.585Z,20.83
2023-01-22T08:43:28.086Z,20.83
2023-01-22T08:46:17.974Z,21.38
2023-01-22T08:49:08.397Z,22.10
2023-01-22T08:51:58.939Z,21.08
2023-01-22T08:54:49.337Z,22.85
2023-01-22T08:57:39.995Z,22.50
2023-01-22T09:00:30.245Z,22.40
2023-01-22T09:03:23.477Z,22.45
2023-01-22T09:06:13.391Z,21.55
2023-01-22T09:09:04.282Z,22.08
2023-01-22T09:11:54.324Z,20.45
2023-01-22T09:14:44.499Z,21.35
2023-01-22T09:17:34.762Z,21.67
2023-01-22T09:20:24.629Z,22.10
2023-01-22T09:23:15.944Z,20.95
2023-01-22T09:26:05.903Z,22.10
2023-01-22T09:28:58.082Z,19.88
2023-01-22T09:31:48.875Z,20.88
2023-01-22T09:34:38.921Z,19.73
2023-01-22T09:37:29.334Z,19.38
2023-01-22T09:40:44.689Z,20.00
2023-01-22T09:43:40.891Z,20.63
2023-01-22T09:46:41.272Z,22.52
2023-01-22T09:49:38.347Z,21.42
2023-01-22T09:52:32.152Z,23.23
2023-01-22T09:55:25.161Z,22.10
2023-01-22T09:58:22.170Z,20.65
2023-01-22T10:01:12.414Z,21.33
2023-01-22T10:04:14.075Z,21.55
2023-01-22T10:07:24.043Z,21.73
2023-01-22T10:10:17.223Z,23.55
2023-01-22T10:13:16.371Z,20.95
2023-01-22T10:16:06.860Z,24.42
2023-01-22T10:19:19.381Z,20.10
2023-01-22T10:22:24.625Z,22.58
2023-01-22T10:25:16.596Z,18.80
2023-01-22T10:28:08.024Z,17.98
2023-01-22T10:30:59.061Z,18.45
2023-01-22T10:33:57.484Z,18.33
2023-01-22T10:36:53.115Z,17.90
2023-01-22T10:39:46.442Z,17.65
2023-01-22T10:42:36.374Z,18.83
2023-01-22T10:45:26.632Z,18.25
2023-01-22T10:48:18.121Z,16.75
2023-01-22T10:51:15.894Z,15.65
2023-01-22T10:54:34.816Z,16.58
2023-01-22T10:57:34.227Z,15.80
2023-01-22T11:00:51.536Z,15.50
2023-01-22T11:03:42.838Z,15.27
2023-01-22T11:06:40.771Z,15.32
2023-01-22T11:09:47.831Z,14.25
2023-01-22T11:12:41.447Z,13.98
2023-01-22T11:15:47.013Z,12.75
2023-01-22T11:18:40.819Z,13.73
2023-01-22T11:21:37.956Z,11.73
2023-01-22T11:24:47.097Z,11.75
2023-01-22T11:27:52.615Z,10.45
2023-01-22T11:31:01.667Z,11.80
2023-01-22T11:34:25.037Z,10.35
2023-01-22T11:37:27.357Z,9.80
2023-01-22T11:40:28.689Z,10.45
2023-01-22T11:43:37.950Z,10.93
2023-01-22T11:47:16.768Z,9.82
2023-01-22T11:50:23.034Z,11.88
2023-01-22T11:53:28.025Z,14.07
2023-01-22T11:56:44.930Z,16.38
2023-01-22T12:00:17.436Z,13.93
2023-01-22T12:03:21.580Z,9.63
2023-01-22T12:06:24.953Z,10.25
2023-01-22T12:09:33.366Z,9.82
2023-01-22T12:12:41.466Z,9.85
2023-01-22T12:15:39.283Z,8.98
2023-01-22T12:19:00.864Z,9.10
2023-01-22T12:22:10.872Z,9.30
2023-01-22T12:25:35.062Z,8.50
2023-01-22T12:28:34.529Z,9.68
2023-01-22T12:31:33.409Z,8.98
2023-01-22T12:34:34.866Z,8.82
2023-01-22T12:37:31.898Z,8.63
2023-01-22T12:40:47.257Z,8.95
2023-01-22T12:44:03.183Z,8.63
2023-01-22T12:47:08.326Z,8.75
2023-01-22T12:49:58.516Z,7.68
2023-01-22T12:53:04.405Z,8.02
2023-01-22T12:56:00.892Z,8.45
2023-01-22T12:58:56.937Z,10.63
2023-01-22T13:01:46.737Z,9.10
2023-01-22T13:04:36.735Z,10.60
2023-01-22T13:07:29.956Z,9.05
2023-01-22T13:10:20.382Z,7.90
2023-01-22T13:13:33.608Z,8.70
2023-01-22T13:16:37.812Z,8.95
2023-01-22T13:19:32.177Z,8.98
2023-01-22T13:22:25.153Z,9.00
2023-01-22T13:25:31.130Z,8.70
2023-01-22T13:28:22.547Z,8.57
2023-01-22T13:31:16.926Z,8.13
2023-01-22T13:34:15.644Z,8.00
2023-01-22T13:37:06.813Z,7.63
2023-01-22T13:39:57.125Z,8.52
2023-01-22T13:42:47.237Z,8.23
2023-01-22T13:45:39.974Z,23.85
2023-01-22T13:48:30.621Z,8.82
2023-01-22T13:51:21.762Z,7.50
2023-01-22T13:54:24.177Z,8.63
2023-01-22T13:57:16.843Z,7.90
2023-01-22T14:00:31.247Z,7.72
2023-01-22T14:03:25.749Z,7.47
2023-01-22T14:06:16.150Z,7.63
2023-01-22T14:09:07.982Z,7.38
2023-01-22T14:11:59.304Z,7.38
2023-01-22T14:14:49.701Z,7.22
2023-01-22T14:17:39.952Z,7.05
2023-01-22T14:20:30.180Z,6.72
2023-01-22T14:23:19.894Z,6.80
2023-01-22T14:26:10.123Z,6.95
2023-01-22T14:29:00.192Z,6.82
2023-01-22T14:31:50.712Z,6.93
2023-01-22T14:34:41.090Z,6.93
2023-01-22T14:37:30.967Z,6.78
2023-01-22T14:40:22.852Z,6.93
2023-01-22T14:43:12.715Z,7.05
2023-01-22T14:46:07.130Z,7.25
2023-01-22T14:49:01.655Z,7.32
2023-01-22T14:51:54.774Z,7.43
2023-01-22T14:54:45.213Z,6.95
2023-01-22T14:57:35.688Z,6.75
2023-01-22T15:00:26.392Z,7.22
2023-01-22T15:03:16.743Z,7.55
2023-01-22T15:06:06.943Z,7.57
2023-01-22T15:08:57.417Z,7.30
2023-01-22T15:11:47.692Z,6.75
2023-01-22T15:14:38.025Z,7.43
2023-01-22T15:17:28.320Z,7.75
2023-01-22T15:20:20.772Z,7.80
2023-01-22T15:23:17.576Z,6.82
2023-01-22T15:26:22.040Z,6.65
2023-01-22T15:29:14.042Z,7.00
2023-01-22T15:32:04.523Z,7.18
2023-01-22T15:34:54.590Z,6.53
2023-01-22T15:37:45.126Z,6.97
2023-01-22T15:40:38.800Z,7.20
2023-01-22T15:43:28.763Z,7.55
2023-01-22T15:46:26.738Z,7.38
2023-01-22T15:49:18.139Z,7.53
2023-01-22T15:52:08.164Z,7.90
2023-01-22T15:54:57.963Z,7.85
2023-01-22T15:57:48.290Z,8.23
2023-01-22T16:00:38.252Z,7.20
2023-01-22T16:03:28.238Z,7.50
2023-01-22T16:06:22.742Z,7.60
2023-01-22T16:09:12.584Z,7.65
2023-01-22T16:12:02.627Z,8.10
2023-01-22T16:14:52.925Z,7.90
2023-01-22T16:17:42.863Z,8.20
2023-01-22T16:20:32.841Z,8.75
2023-01-22T16:23:22.814Z,7.78
2023-01-22T16:26:18.963Z,8.70
2023-01-22T16:29:10.576Z,8.15
2023-01-22T16:32:00.872Z,8.90
2023-01-22T16:34:50.816Z,7.95
2023-01-22T16:37:43.949Z,7.93
2023-01-22T16:40:33.747Z,8.37
2023-01-22T16:43:23.503Z,8.68
2023-01-22T16:46:14.505Z,8.15
2023-01-22T16:49:07.724Z,8.02
2023-01-22T16:52:12.991Z,8.37
2023-01-22T16:55:11.385Z,9.02
2023-01-22T16:58:01.553Z,9.77
2023-01-22T17:00:51.553Z,8.98
2023-01-22T17:03:42.046Z,11.50
2023-01-22T17:06:48.115Z,9.75
2023-01-22T17:09:38.173Z,11.93
2023-01-22T17:12:28.372Z,9.30
2023-01-22T17:15:19.259Z,8.88
2023-01-22T17:18:09.910Z,9.43
2023-01-22T17:21:07.348Z,12.32
2023-01-22T17:23:57.491Z,8.65
2023-01-22T17:26:48.434Z,8.32
2023-01-22T17:29:38.507Z,9.10
2023-01-22T17:32:28.962Z,9.20
2023-01-22T17:35:19.142Z,8.45
2023-01-22T17:38:10.500Z,8.30
2023-01-22T17:41:16.126Z,10.70
2023-01-22T17:44:06.056Z,10.65
2023-01-22T17:46:59.496Z,10.52
2023-01-22T17:49:49.482Z,9.48
2023-01-22T17:52:40.099Z,11.18
2023-01-22T17:55:29.965Z,9.52
2023-01-22T17:58:20.069Z,8.38
2023-01-22T18:01:12.560Z,7.78
2023-01-22T18:04:06.346Z,8.88
2023-01-22T18:06:56.536Z,7.38
2023-01-22T18:09:46.874Z,9.38
2023-01-22T18:12:37.080Z,10.15
2023-01-22T18:15:27.006Z,12.30
2023-01-22T18:18:18.287Z,8.63
2023-01-22T18:21:14.085Z,7.88
2023-01-22T18:24:06.682Z,9.45
2023-01-22T18:26:58.616Z,7.38
2023-01-22T18:29:48.617Z,7.00
2023-01-22T18:32:39.160Z,7.47
2023-01-22T18:35:29.444Z,6.97
2023-01-22T18:38:26.179Z,7.28
2023-01-22T18:41:23.772Z,7.15
2023-01-22T18:44:16.110Z,7.05
2023-01-22T18:47:11.055Z,7.18
2023-01-22T18:50:01.400Z,7.13
2023-01-22T18:52:51.387Z,7.13
2023-01-22T18:55:41.300Z,7.53
2023-01-22T18:58:34.019Z,7.63
2023-01-22T19:01:29.564Z,6.97
2023-01-22T19:04:21.800Z,7.72
2023-01-22T19:07:12.076Z,7.88
2023-01-22T19:10:03.258Z,8.05
2023-01-22T19:12:53.078Z,9.05
2023-01-22T19:15:44.222Z,9.57
2023-01-22T19:18:35.196Z,15.45
2023-01-22T19:21:26.816Z,11.20
2023-01-22T19:24:19.318Z,12.38
2023-01-22T19:27:09.792Z,9.77
2023-01-22T19:30:00.637Z,12.73
2023-01-22T19:32:55.603Z,10.32
2023-01-22T19:35:49.531Z,10.20
2023-01-22T19:38:39.812Z,9.82
2023-01-22T19:41:30.499Z,12.23
2023-01-22T19:44:21.116Z,14.80
2023-01-22T19:47:11.456Z,10.75
2023-01-22T19:50:01.475Z,12.27
2023-01-22T19:52:51.960Z,10.73
2023-01-22T19:55:41.981Z,11.57
2023-01-22T19:58:32.134Z,15.55
2023-01-22T20:01:22.931Z,9.23
2023-01-22T20:04:25.015Z,12.43
2023-01-22T20:07:15.033Z,12.93
2023-01-22T20:10:05.561Z,11.32
2023-01-22T20:12:55.503Z,17.05
2023-01-22T20:15:45.464Z,10.02
2023-01-22T20:18:35.446Z,9.82
2023-01-22T20:21:26.984Z,9.10
2023-01-22T20:24:17.173Z,10.75
2023-01-22T20:27:08.436Z,8.63
2023-01-22T20:29:58.672Z,12.15
2023-01-22T20:32:48.721Z,14.35
2023-01-22T20:35:42.398Z,15.38
2023-01-22T20:38:32.590Z,17.33
2023-01-22T20:41:24.244Z,15.20
2023-01-22T20:44:15.909Z,13.45
2023-01-22T20:47:06.474Z,18.85
2023-01-22T20:49:56.635Z,27.50
2023-01-22T20:52:46.478Z,16.50
2023-01-22T20:55:36.291Z,11.23
2023-01-22T20:58:26.984Z,10.20
2023-01-22T21:01:19.278Z,14.43
2023-01-22T21:04:11.196Z,13.27
2023-01-22T21:07:01.432Z,9.98
2023-01-22T21:09:51.729Z,11.75
2023-01-22T21:12:42.420Z,10.63
2023-01-22T21:15:33.614Z,10.77
2023-01-22T21:18:23.844Z,10.68
2023-01-22T21:21:20.820Z,10.93
2023-01-22T21:24:12.150Z,10.43
2023-01-22T21:27:02.537Z,10.60
2023-01-22T21:29:52.723Z,10.77
2023-01-22T21:32:42.987Z,13.75
2023-01-22T21:35:33.238Z,12.82
2023-01-22T21:38:23.032Z,11.77
2023-01-22T21:41:16.974Z,11.30
2023-01-22T21:44:26.026Z,14.85
2023-01-22T21:47:16.183Z,14.55
2023-01-22T21:50:06.658Z,14.10
2023-01-22T21:52:56.935Z,15.60
2023-01-22T21:55:52.413Z,15.85
2023-01-22T21:58:45.325Z,13.60
2023-01-22T22:01:36.430Z,10.02
2023-01-22T22:04:27.278Z,15.40
2023-01-22T22:07:18.137Z,12.23
2023-01-22T22:10:12.565Z,11.85
2023-01-22T22:13:02.621Z,12.32
2023-01-22T22:15:52.749Z,14.23
2023-01-22T22:18:42.687Z,15.10
2023-01-22T22:21:32.625Z,13.35
2023-01-22T22:24:22.634Z,12.43
2023-01-22T22:27:12.648Z,16.35
2023-01-22T22:30:02.395Z,15.30
2023-01-22T22:32:54.532Z,14.70
2023-01-22T22:35:46.311Z,13.23
2023-01-22T22:38:37.133Z,13.27
2023-01-22T22:41:30.508Z,13.40
2023-01-22T22:44:20.523Z,13.40
2023-01-22T22:47:11.339Z,12.38
2023-01-22T22:50:01.095Z,12.73
2023-01-22T22:52:50.876Z,11.93
2023-01-22T22:55:41.776Z,11.00
2023-01-22T22:58:32.836Z,12.25
2023-01-22T23:01:24.595Z,12.05
2023-01-22T23:04:14.538Z,11.63
2023-01-22T23:07:04.798Z,12.15
2023-01-22T23:09:55.137Z,12.43
2023-01-22T23:12:45.272Z,11.77
2023-01-22T23:15:35.190Z,12.07
2023-01-22T23:18:26.007Z,11.75
2023-01-22T23:21:21.878Z,11.85
2023-01-22T23:24:13.696Z,11.60
2023-01-22T23:27:04.415Z,12.60
2023-01-22T23:29:54.339Z,12.63
2023-01-22T23:32:44.416Z,12.25
2023-01-22T23:35:35.007Z,12.25
2023-01-22T23:38:24.955Z,12.27
2023-01-22T23:41:16.631Z,13.02
2023-01-22T23:44:06.766Z,12.95
2023-01-22T23:46:56.984Z,12.73
2023-01-22T23:49:47.152Z,13.50
2023-01-22T23:52:37.657Z,12.23
2023-01-22T23:55:27.821Z,12.65
2023-01-22T23:58:17.947Z,13.00
